Time;durP1;ratioP1;P1;durP2;ratioP2;P2;SDS_P1;SDS_P2;PMS_P1;PMS_P2;Temp;Humidity;BMP_temperature;BMP_pressure;BME280_temperature;BME280_humidity;BME280_pressure;Samples;Min_cycle;Max_cycle;Signal;HPM_P1;HPM_P2
2021/10/06 00:00:57;;;;;;;;;;;9.80;99.90;;;;;;5105691;28;20127;-58
2021/10/06 00:03:23;;;;;;;5.65;1.17;;;9.90;99.90;;;;;;5116008;28;19916;-57
2021/10/06 00:05:48;;;;;;;;;;;9.80;99.90;;;;;;5101872;28;20082;-60
2021/10/06 00:08:14;;;;;;;5.45;1.02;;;9.80;99.90;;;;;;5102196;28;19970;-50
2021/10/06 00:10:39;;;;;;;3.22;1.25;;;9.80;99.90;;;;;;5101959;28;20035;-55
2021/10/06 00:13:05;;;;;;;;;;;9.80;99.90;;;;;;5102825;28;20040;-60
2021/10/06 00:15:30;;;;;;;4.90;1.30;;;9.80;99.90;;;;;;5101431;28;20394;-58
2021/10/06 00:17:56;;;;;;;;;;;9.80;99.90;;;;;;5068661;28;20137;-55
2021/10/06 00:20:22;;;;;;;2.13;0.90;;;9.90;99.90;;;;;;5088809;28;19920;-59
2021/10/06 00:22:47;;;;;;;4.05;1.10;;;9.90;99.90;;;;;;5069715;28;20067;-56
2021/10/06 00:25:13;;;;;;;5.70;0.80;;;9.90;99.90;;;;;;5087654;28;20435;-60
2021/10/06 00:27:38;;;;;;;6.20;1.85;;;9.90;99.90;;;;;;5088987;28;20054;-59
2021/10/06 00:30:04;;;;;;;;;;;9.80;99.90;;;;;;5089411;28;20051;-55
2021/10/06 00:32:29;;;;;;;5.13;1.08;;;9.90;99.90;;;;;;5087522;28;19916;-57
2021/10/06 00:34:55;;;;;;;;;;;9.80;99.90;;;;;;5088929;28;20036;-55
2021/10/06 00:37:21;;;;;;;7.35;1.55;;;9.80;99.90;;;;;;5088499;28;20442;-60
2021/10/06 00:39:46;;;;;;;;;;;9.80;99.90;;;;;;5089148;28;20044;-53
2021/10/06 00:42:12;;;;;;;7.65;1.13;;;9.80;99.90;;;;;;5088456;28;20268;-59
2021/10/06 00:44:38;;;;;;;;;;;9.80;99.90;;;;;;5088373;28;20032;-57
2021/10/06 00:47:04;;;;;;;6.82;1.20;;;9.80;99.90;;;;;;5088043;28;19990;-58
2021/10/06 00:49:30;;;;;;;8.15;0.93;;;9.80;99.90;;;;;;5070635;28;20120;-59
2021/10/06 00:51:56;;;;;;;;;;;9.80;99.90;;;;;;5087719;28;20111;-58
2021/10/06 00:54:21;;;;;;;5.07;1.30;;;9.80;99.90;;;;;;5088428;28;19937;-52
2021/10/06 00:56:47;;;;;;;;;;;9.80;99.90;;;;;;5087790;28;20047;-54
2021/10/06 00:59:12;;;;;;;3.33;1.05;;;9.80;99.90;;;;;;5088398;28;19915;-58
2021/10/06 01:01:38;;;;;;;;;;;9.80;99.90;;;;;;5086886;28;20074;-59
2021/10/06 01:04:04;;;;;;;4.72;1.20;;;9.80;99.90;;;;;;5087325;28;19961;-59
2021/10/06 01:06:31;;;;;;;4.20;1.02;;;9.80;99.90;;;;;;5086713;28;20052;-59
2021/10/06 01:09:00;;;;;;;3.78;1.52;;;9.80;99.90;;;;;;5087623;28;20066;-58
2021/10/06 01:11:27;;;;;;;3.22;1.02;;;9.70;99.90;;;;;;5088062;28;20064;-59
2021/10/06 01:13:54;;;;;;;3.15;0.98;;;9.70;99.90;;;;;;5087921;28;20775;-59
2021/10/06 01:16:21;;;;;;;2.70;0.90;;;9.70;99.90;;;;;;5087106;28;20707;-60
2021/10/06 01:18:47;;;;;;;4.13;1.23;;;9.70;99.90;;;;;;5087533;28;20080;-60
2021/10/06 01:21:19;;;;;;;;;;;9.70;99.90;;;;;;5068443;28;20514;-58
2021/10/06 01:23:46;;;;;;;4.88;1.15;;;9.60;99.90;;;;;;5087698;28;20380;-58
2021/10/06 01:26:18;;;;;;;2.70;1.20;;;9.60;99.90;;;;;;5087189;28;20071;-60
2021/10/06 01:28:45;;;;;;;3.42;1.33;;;9.60;99.90;;;;;;5087754;28;20069;-56
2021/10/06 01:31:11;;;;;;;7.32;1.10;;;9.60;99.90;;;;;;5086751;28;20032;-58
2021/10/06 01:33:36;;;;;;;;;;;9.50;99.90;;;;;;5087219;28;20050;-55
2021/10/06 01:36:02;;;;;;;5.57;1.08;;;9.60;99.90;;;;;;5087084;28;19931;-57
2021/10/06 01:38:27;;;;;;;;;;;9.50;99.90;;;;;;5087482;28;20476;-58
2021/10/06 01:40:53;;;;;;;2.85;1.30;;;9.60;99.90;;;;;;5069513;28;19916;-59
2021/10/06 01:43:19;;;;;;;;;;;9.50;99.90;;;;;;5087089;28;20127;-58
2021/10/06 01:45:44;;;;;;;1.08;0.70;;;9.60;99.90;;;;;;5068185;28;19964;-53
2021/10/06 01:48:11;;;;;;;;;;;9.60;99.90;;;;;;5088005;28;20636;-57
2021/10/06 01:50:39;;;;;;;2.17;1.30;;;9.60;99.90;;;;;;5085703;28;19962;-55
2021/10/06 01:53:05;;;;;;;1.85;1.02;;;9.60;99.90;;;;;;5086588;28;20036;-57
2021/10/06 01:55:32;;;;;;;;;;;9.60;99.90;;;;;;5087242;28;20032;-56
2021/10/06 01:58:00;;;;;;;1.80;1.00;;;9.60;99.90;;;;;;5081291;28;19920;-56
2021/10/06 02:00:26;;;;;;;1.90;0.90;;;9.60;99.90;;;;;;5067984;28;20094;-60
2021/10/06 02:02:52;;;;;;;4.32;1.25;;;9.60;99.90;;;;;;5066369;28;20036;-56
2021/10/06 02:05:18;;;;;;;2.88;1.08;;;9.60;99.90;;;;;;5065191;28;20064;-60
2021/10/06 02:07:44;;;;;;;;;;;9.50;99.90;;;;;;5075324;28;20040;-55
2021/10/06 02:10:09;;;;;;;3.33;0.80;;;9.60;99.90;;;;;;5086944;28;19920;-59
2021/10/06 02:12:35;;;;;;;;;;;9.60;99.90;;;;;;5086255;28;20044;-58
2021/10/06 02:15:01;;;;;;;6.53;1.17;;;9.60;99.90;;;;;;5086498;28;19959;-58
2021/10/06 02:17:26;;;;;;;;;;;9.60;99.90;;;;;;5087072;28;20044;-58
2021/10/06 02:19:52;;;;;;;10.98;5.40;;;9.60;99.90;;;;;;5084802;28;19920;-55
2021/10/06 02:22:17;;;;;;;;;;;9.60;99.90;;;;;;5086781;28;20559;-55
2021/10/06 02:24:43;;;;;;;2.60;1.13;;;9.60;99.90;;;;;;5085771;28;19924;-58
2021/10/06 02:27:08;;;;;;;;;;;9.60;99.90;;;;;;5086301;28;20075;-57
2021/10/06 02:29:34;;;;;;;2.53;0.98;;;9.50;99.90;;;;;;5086818;28;19938;-59
2021/10/06 02:32:00;;;;;;;;;;;9.50;99.90;;;;;;5085840;28;20119;-52
2021/10/06 02:34:25;;;;;;;10.13;1.40;;;9.50;99.90;;;;;;5084895;28;19923;-58
2021/10/06 02:36:52;;;;;;;;;;;9.60;99.90;;;;;;5087269;28;20564;-56
2021/10/06 02:39:18;;;;;;;6.30;1.40;;;9.50;99.90;;;;;;5087351;28;19923;-56
2021/10/06 02:41:43;;;;;;;;;;;9.60;99.90;;;;;;5086198;28;20048;-56
2021/10/06 02:44:09;;;;;;;5.40;1.15;;;9.60;99.90;;;;;;5068575;28;20980;-58
2021/10/06 02:46:35;;;;;;;;;;;9.60;99.90;;;;;;5083572;28;20194;-57
2021/10/06 02:49:00;;;;;;;8.00;1.10;;;9.60;99.90;;;;;;5084918;28;20022;-58
2021/10/06 02:51:26;;;;;;;;;;;9.60;99.90;;;;;;5087348;28;20376;-59
2021/10/06 02:53:52;;;;;;;3.67;1.58;;;9.60;99.90;;;;;;5085685;28;20393;-56
2021/10/06 02:56:17;;;;;;;;;;;9.60;99.90;;;;;;5085473;28;20094;-54
2021/10/06 02:58:43;;;;;;;2.95;1.15;;;9.50;99.90;;;;;;5086193;28;20001;-60
2021/10/06 03:01:09;;;;;;;;;;;9.50;99.90;;;;;;5086299;28;20059;-59
2021/10/06 03:03:35;;;;;;;3.45;0.93;;;9.60;99.90;;;;;;5084344;28;19955;-60
2021/10/06 03:06:00;;;;;;;;;;;9.50;99.90;;;;;;5085287;28;20040;-54
2021/10/06 03:08:26;;;;;;;8.30;1.35;;;9.50;99.90;;;;;;5086502;28;19916;-55
2021/10/06 03:10:51;;;;;;;;;;;9.50;99.90;;;;;;5086757;28;20035;-56
2021/10/06 03:13:17;;;;;;;3.67;1.17;;;9.50;99.90;;;;;;5086197;28;19950;-59
2021/10/06 03:15:44;;;;;;;;;;;9.50;99.90;;;;;;5086189;28;20036;-59
2021/10/06 03:18:10;;;;;;;4.17;1.10;;;9.50;99.90;;;;;;5085100;28;19923;-59
2021/10/06 03:20:36;;;;;;;7.93;1.63;;;9.50;99.90;;;;;;5086573;28;20028;-59
2021/10/06 03:23:08;;;;;;;5.20;1.65;;;9.50;99.90;;;;;;5084887;28;20061;-60
2021/10/06 03:25:34;;;;;;;9.30;1.17;;;9.40;99.90;;;;;;5085520;28;20044;-57
2021/10/06 03:27:59;;;;;;;;;;;9.40;99.90;;;;;;5085893;28;20433;-61
2021/10/06 03:30:25;;;;;;;6.50;1.45;;;9.50;99.90;;;;;;5084383;28;19916;-59
2021/10/06 03:32:50;;;;;;;;;;;9.50;99.90;;;;;;5084683;28;20126;-57
2021/10/06 03:35:20;;;;;;;6.05;1.30;;;9.50;99.90;;;;;;5085547;28;19943;-55
2021/10/06 03:37:46;;;;;;;6.90;1.40;;;9.50;99.90;;;;;;5085827;28;20032;-58
2021/10/06 03:40:13;;;;;;;8.65;1.20;;;9.50;99.90;;;;;;5086033;28;20068;-58
2021/10/06 03:42:39;;;;;;;5.07;1.20;;;9.50;99.90;;;;;;5086010;28;20518;-57
2021/10/06 03:45:06;;;;;;;;;;;9.50;99.90;;;;;;5068705;28;20064;-59
2021/10/06 03:47:32;;;;;;;;;;;9.50;99.90;;;;;;5085450;28;19924;-58
2021/10/06 03:49:57;;;;;;;12.55;1.23;;;9.50;99.90;;;;;;5085566;28;20335;-62
2021/10/06 03:52:23;;;;;;;;;;;9.50;99.90;;;;;;5085629;28;20460;-58
2021/10/06 03:54:48;;;;;;;5.03;2.03;;;9.50;99.90;;;;;;5088876;28;19927;-59
2021/10/06 03:57:14;;;;;;;;;;;9.50;99.90;;;;;;5089831;28;20032;-58
2021/10/06 03:59:39;;;;;;;7.80;1.15;;;9.50;99.90;;;;;;5087113;28;20315;-59
2021/10/06 04:02:05;;;;;;;;;;;9.50;99.90;;;;;;5079857;28;20044;-56
2021/10/06 04:04:31;;;;;;;6.25;1.20;;;9.40;99.90;;;;;;5088783;28;20387;-58
2021/10/06 04:06:56;;;;;;;;;;;9.40;99.90;;;;;;5090382;28;20040;-55
2021/10/06 04:09:22;;;;;;;5.88;1.20;;;9.40;99.90;;;;;;5089660;28;19973;-52
2021/10/06 04:11:48;;;;;;;;;;;9.40;99.90;;;;;;5087046;28;20032;-60
2021/10/06 04:14:13;;;;;;;3.17;0.90;;;9.40;99.90;;;;;;5089134;28;20002;-61
2021/10/06 04:16:39;;;;;;;;;;;9.40;99.90;;;;;;5087320;28;20491;-59
2021/10/06 04:19:05;;;;;;;4.68;1.25;;;9.40;99.90;;;;;;5089217;28;19955;-52
2021/10/06 04:21:30;;;;;;;;;;;9.50;99.90;;;;;;5070751;28;20617;-56
2021/10/06 04:23:56;;;;;;;3.20;1.10;;;9.40;99.90;;;;;;5090052;28;19922;-59
2021/10/06 04:26:22;;;;;;;;;;;9.40;99.90;;;;;;5083184;28;20093;-57
2021/10/06 04:28:47;;;;;;;4.10;1.27;;;9.40;99.90;;;;;;5088917;28;19924;-63
2021/10/06 04:31:13;;;;;;;;;;;9.40;99.90;;;;;;5085358;28;20064;-56
2021/10/06 04:33:39;;;;;;;16.88;5.57;;;9.40;99.90;;;;;;5088167;28;19923;-58
2021/10/06 04:36:05;;;;;;;5.82;1.80;;;9.40;99.90;;;;;;5088570;28;20047;-59
2021/10/06 04:38:31;;;;;;;;;;;9.40;99.90;;;;;;5089498;28;20043;-60
2021/10/06 04:40:56;;;;;;;10.52;1.50;;;9.30;99.90;;;;;;5070149;28;19916;-57
2021/10/06 04:43:22;;;;;;;;;;;9.30;99.90;;;;;;5088101;28;20447;-57
2021/10/06 04:45:48;;;;;;;5.97;1.35;;;9.30;99.90;;;;;;5085180;28;20287;-57
2021/10/06 04:48:13;;;;;;;11.38;1.30;;;9.30;99.90;;;;;;5080826;28;20067;-57
2021/10/06 04:50:39;;;;;;;;;;;9.30;99.90;;;;;;5089209;28;20040;-59
2021/10/06 04:53:05;;;;;;;10.90;3.42;;;9.30;99.90;;;;;;5087722;28;20007;-55
2021/10/06 04:55:31;;;;;;;;;;;9.30;99.90;;;;;;5088704;28;20526;-54
2021/10/06 04:57:58;;;;;;;5.00;1.45;;;9.30;99.90;;;;;;5087741;28;20002;-58
2021/10/06 05:00:25;;;;;;;4.78;1.42;;;9.30;99.90;;;;;;5076688;28;20050;-61
2021/10/06 05:02:51;;;;;;;6.00;2.30;;;9.30;99.90;;;;;;5077584;28;20044;-59
2021/10/06 05:05:16;;;;;;;;;;;9.30;99.90;;;;;;5083734;28;20033;-61
2021/10/06 05:07:42;;;;;;;9.65;1.90;;;9.30;99.90;;;;;;5076849;28;19924;-60
2021/10/06 05:10:08;;;;;;;;;;;9.30;99.90;;;;;;5089667;28;20515;-57
2021/10/06 05:12:33;;;;;;;10.55;2.67;;;9.20;99.90;;;;;;5087555;28;19916;-58
2021/10/06 05:14:59;;;;;;;;;;;9.20;99.90;;;;;;5087854;28;20051;-57
2021/10/06 05:17:25;;;;;;;12.27;1.85;;;9.10;99.90;;;;;;5089327;28;19920;-60
2021/10/06 05:19:50;;;;;;;;;;;9.00;99.90;;;;;;5089079;28;20036;-60
2021/10/06 05:22:16;;;;;;;7.13;1.20;;;8.90;99.90;;;;;;5087108;28;19915;-61
2021/10/06 05:24:42;;;;;;;;;;;8.90;99.90;;;;;;5080837;28;20039;-60
2021/10/06 05:27:08;;;;;;;3.88;1.20;;;8.90;99.90;;;;;;5091218;28;19927;-62
2021/10/06 05:29:34;;;;;;;6.20;1.15;;;8.80;99.90;;;;;;5071685;28;20036;-60
2021/10/06 05:32:03;;;;;;;;;;;8.80;99.90;;;;;;5064568;28;20036;-62
2021/10/06 05:34:31;;;;;;;6.60;1.35;;;8.90;99.90;;;;;;5088066;28;19916;-60
2021/10/06 05:36:58;;;;;;;9.35;1.63;;;8.90;99.90;;;;;;5057538;28;20042;-60
2021/10/06 05:39:25;;;;;;;6.05;1.73;;;8.80;99.90;;;;;;5089611;28;20171;-60
2021/10/06 05:41:52;;;;;;;7.28;1.35;;;8.80;99.90;;;;;;5038426;28;20107;-61
2021/10/06 05:44:18;;;;;;;5.80;1.38;;;8.80;99.90;;;;;;5075904;22;20719;-61
2021/10/06 05:46:44;;;;;;;3.15;1.33;;;8.90;99.90;;;;;;5035489;28;20041;-60
2021/10/06 05:49:11;;;;;;;2.95;1.05;;;8.90;99.90;;;;;;5022319;28;20072;-59
2021/10/06 05:51:37;;;;;;;5.97;1.40;;;8.90;99.90;;;;;;5028551;28;20436;-59
2021/10/06 05:54:03;;;;;;;5.15;0.95;;;8.90;99.90;;;;;;5025291;28;20481;-58
2021/10/06 05:56:29;;;;;;;;;;;9.00;99.90;;;;;;5008817;28;20080;-61
2021/10/06 05:58:54;;;;;;;6.63;1.52;;;9.00;99.90;;;;;;5015459;28;19963;-60
2021/10/06 06:01:20;;;;;;;;;;;9.00;99.90;;;;;;5025662;28;20037;-60
2021/10/06 06:03:45;;;;;;;7.45;1.17;;;8.90;99.90;;;;;;5029030;28;20480;-60
2021/10/06 06:06:11;;;;;;;;;;;8.90;99.90;;;;;;5031000;28;20053;-55
2021/10/06 06:08:37;;;;;;;6.32;1.33;;;8.90;99.90;;;;;;5009972;28;19924;-56
2021/10/06 06:11:03;;;;;;;;;;;9.00;99.90;;;;;;5028620;28;20620;-59
2021/10/06 06:13:28;;;;;;;5.10;0.90;;;8.90;99.90;;;;;;5028961;28;19928;-55
2021/10/06 06:15:54;;;;;;;;;;;8.90;99.90;;;;;;5027092;28;20045;-53
2021/10/06 06:18:20;;;;;;;4.75;1.23;;;9.00;99.90;;;;;;5028845;28;19972;-59
2021/10/06 06:20:47;;;;;;;7.85;2.17;;;8.90;99.90;;;;;;5028995;28;20045;-53
2021/10/06 06:23:13;;;;;;;9.32;2.95;;;8.90;99.90;;;;;;5028639;28;20449;-61
2021/10/06 06:25:38;;;;;;;;;;;8.90;99.90;;;;;;5029722;28;20120;-57
2021/10/06 06:28:04;;;;;;;8.63;1.35;;;8.90;99.90;;;;;;5029194;28;19964;-59
2021/10/06 06:30:30;;;;;;;3.97;1.58;;;8.90;99.90;;;;;;5028570;28;20041;-59
2021/10/06 06:32:56;;;;;;;15.38;6.43;;;8.90;99.90;;;;;;5010626;28;20125;-57
2021/10/06 06:35:22;;;;;;;4.57;1.50;;;8.90;99.90;;;;;;5027860;28;20033;-59
2021/10/06 06:37:48;;;;;;;;;;;8.90;99.90;;;;;;5010130;28;20099;-59
2021/10/06 06:40:14;;;;;;;4.80;0.90;;;8.90;99.90;;;;;;5028556;28;19917;-57
2021/10/06 06:42:40;;;;;;;;;;;8.90;99.90;;;;;;5028975;28;20045;-59
2021/10/06 06:45:07;;;;;;;5.53;1.70;;;9.00;99.90;;;;;;5026265;28;19940;-56
2021/10/06 06:47:33;;;;;;;5.68;2.22;;;9.00;99.90;;;;;;5010346;28;20049;-58
2021/10/06 06:49:58;;;;;;;;;;;8.90;99.90;;;;;;5010706;28;20409;-59
2021/10/06 06:52:25;;;;;;;4.70;1.67;;;8.90;99.90;;;;;;5029942;28;19975;-60
2021/10/06 06:54:51;;;;;;;4.53;1.10;;;8.90;99.90;;;;;;5027518;28;20093;-54
2021/10/06 06:57:16;;;;;;;;;;;9.00;99.90;;;;;;5011168;28;20140;-51
2021/10/06 06:59:42;;;;;;;3.00;1.00;;;9.00;99.90;;;;;;5027014;28;19924;-60
2021/10/06 07:02:09;;;;;;;;;;;9.00;99.90;;;;;;5027183;28;20528;-55
2021/10/06 07:04:35;;;;;;;7.00;1.27;;;9.10;99.90;;;;;;5027976;28;19917;-60
2021/10/06 07:07:03;;;;;;;9.82;1.55;;;9.00;99.90;;;;;;5029828;28;20081;-59
2021/10/06 07:09:29;;;;;;;21.50;1.63;;;9.10;99.90;;;;;;5028431;28;20052;-56
2021/10/06 07:11:55;;;;;;;6.07;1.65;;;9.10;99.90;;;;;;5027882;28;20569;-60
2021/10/06 07:14:21;;;;;;;;;;;9.10;99.90;;;;;;5027631;28;20053;-60
2021/10/06 07:16:47;;;;;;;135.88;27.90;;;9.10;99.90;;;;;;5025768;28;20507;-61
2021/10/06 07:19:13;;;;;;;;;;;9.20;99.90;;;;;;5028787;28;20041;-57
2021/10/06 07:21:43;;;;;;;90.50;30.92;;;9.20;99.90;;;;;;5007855;28;19917;-58
2021/10/06 07:24:12;;;;;;;19.15;4.57;;;9.30;99.90;;;;;;5010318;28;20045;-57
2021/10/06 07:26:38;;;;;;;13.98;3.75;;;9.30;99.90;;;;;;5028524;28;20107;-61
2021/10/06 07:29:03;;;;;;;;;;;9.30;99.90;;;;;;5015035;28;20087;-57
2021/10/06 07:31:29;;;;;;;11.43;2.55;;;9.30;99.90;;;;;;5031648;28;20172;-57
2021/10/06 07:33:57;;;;;;;;;;;9.30;99.90;;;;;;5032448;28;20049;-59
2021/10/06 07:36:24;;;;;;;9.13;2.05;;;9.30;99.90;;;;;;5032180;28;19916;-58
2021/10/06 07:38:52;;;;;;;6.63;1.10;;;9.30;99.90;;;;;;5015744;28;20060;-62
2021/10/06 07:41:17;;;;;;;3.05;1.15;;;9.30;99.90;;;;;;5032394;28;20052;-55
2021/10/06 07:43:43;;;;;;;;;;;9.40;99.90;;;;;;5031225;28;20045;-58
2021/10/06 07:46:08;;;;;;;3.45;0.88;;;9.40;99.90;;;;;;5030942;28;19921;-60
2021/10/06 07:48:34;;;;;;;;;;;9.40;99.90;;;;;;5032346;28;20095;-61
2021/10/06 07:51:00;;;;;;;6.18;1.23;;;9.40;99.90;;;;;;5031193;28;20023;-60
2021/10/06 07:53:25;;;;;;;5.75;1.08;;;9.50;99.90;;;;;;5030933;28;20053;-60
2021/10/06 07:55:51;;;;;;;4.43;1.10;;;9.50;99.90;;;;;;5031283;28;20048;-60
2021/10/06 07:58:16;;;;;;;;;;;9.60;99.90;;;;;;5036754;28;20037;-58
2021/10/06 08:00:42;;;;;;;5.95;1.38;;;9.80;99.90;;;;;;5022902;28;19920;-58
2021/10/06 08:03:08;;;;;;;;;;;9.90;99.90;;;;;;5032765;28;20052;-60
2021/10/06 08:05:33;;;;;;;11.07;1.27;;;10.00;99.90;;;;;;5014336;23;19925;-59
2021/10/06 08:07:59;;;;;;;;;;;9.90;99.90;;;;;;5021015;28;20096;-57
2021/10/06 08:10:24;;;;;;;8.93;1.20;;;9.70;99.90;;;;;;5010725;28;19944;-61
2021/10/06 08:12:50;;;;;;;5.30;1.00;;;9.60;99.90;;;;;;5020415;28;20504;-59
2021/10/06 08:15:15;;;;;;;;;;;9.50;99.90;;;;;;5024925;28;20041;-60
2021/10/06 08:17:41;;;;;;;4.45;1.10;;;9.40;99.90;;;;;;5030062;28;20004;-65
2021/10/06 08:20:07;;;;;;;;;;;9.30;99.90;;;;;;5026288;28;20405;-59
2021/10/06 08:22:32;;;;;;;9.98;2.95;;;9.30;99.90;;;;;;5021642;28;19952;-58
2021/10/06 08:24:58;;;;;;;;;;;9.20;99.90;;;;;;5027211;28;20448;-62
2021/10/06 08:27:23;;;;;;;7.20;1.90;;;9.30;99.90;;;;;;5029184;28;20718;-61
2021/10/06 08:29:49;;;;;;;;;;;9.40;99.90;;;;;;5030817;28;20044;-59
2021/10/06 08:32:15;;;;;;;2.72;1.00;;;9.40;99.90;;;;;;5029645;28;19985;-57
2021/10/06 08:34:40;;;;;;;;;;;9.60;99.90;;;;;;5028593;28;20037;-61
2021/10/06 08:37:06;;;;;;;5.55;1.20;;;9.60;99.90;;;;;;5025839;28;19971;-61
2021/10/06 08:39:32;;;;;;;;;;;9.70;99.90;;;;;;5027236;28;20075;-59
2021/10/06 08:41:59;;;;;;;4.40;1.20;;;9.70;99.90;;;;;;5029722;28;19951;-62
2021/10/06 08:44:32;;;;;;;3.63;0.82;;;9.80;99.90;;;;;;5018932;28;20052;-59
2021/10/06 08:46:58;;;;;;;5.82;0.90;;;9.90;99.90;;;;;;5031140;28;20037;-61
2021/10/06 08:49:24;;;;;;;4.05;1.00;;;9.90;99.90;;;;;;5028705;28;20593;-61
2021/10/06 08:51:50;;;;;;;;;;;10.00;99.90;;;;;;5028994;28;20040;-55
2021/10/06 08:54:17;;;;;;;4.20;0.90;;;10.10;99.90;;;;;;5026134;28;19924;-61
2021/10/06 08:56:46;;;;;;;6.90;0.80;;;10.00;99.90;;;;;;5017459;28;20037;-60
2021/10/06 08:59:13;;;;;;;9.35;1.35;;;10.00;99.90;;;;;;5024608;28;20049;-60
2021/10/06 09:01:42;;;;;;;;;;;9.90;99.90;;;;;;4966364;28;136724;-57
2021/10/06 09:04:08;;;;;;;4.68;0.90;;;10.00;99.90;;;;;;5009333;28;20369;-61
2021/10/06 09:06:39;;;;;;;13.68;1.52;;;9.90;99.90;;;;;;5002833;28;20044;-61
2021/10/06 09:09:23;;;;;;;9.07;1.10;;;9.80;99.90;;;;;;5002075;28;20408;-55
2021/10/06 09:11:52;;;;;;;4.97;1.10;;;9.80;99.90;;;;;;5001272;28;20041;-60
2021/10/06 09:14:18;;;;;;;4.90;1.13;;;9.80;99.90;;;;;;5001917;28;20050;-62
2021/10/06 09:16:45;;;;;;;6.03;1.30;;;9.90;99.90;;;;;;5004683;28;20168;-60
2021/10/06 09:19:12;;;;;;;6.90;1.48;;;9.90;99.90;;;;;;5002664;28;20038;-59
2021/10/06 09:21:57;;;;;;;5.85;1.73;;;9.90;99.90;;;;;;4997470;28;20490;-59
2021/10/06 09:24:24;;;;;;;6.90;1.83;;;9.90;99.90;;;;;;5005952;28;20791;-62
2021/10/06 09:27:05;;;;;;;15.43;4.35;;;9.80;99.90;;;;;;5019093;28;20041;-58
2021/10/06 09:29:31;;;;;;;4.15;1.02;;;9.70;99.90;;;;;;5010709;28;20413;-60
2021/10/06 09:31:58;;;;;;;3.03;1.00;;;9.70;99.90;;;;;;5010726;28;20700;-61
2021/10/06 09:34:23;;;;;;;;;;;9.70;99.90;;;;;;5009284;28;20121;-60
2021/10/06 09:36:49;;;;;;;2.20;0.70;;;9.70;99.90;;;;;;5009287;28;19943;-60
2021/10/06 09:45:30;;;;;;;7.70;1.10;;;10.10;99.90;;;;;;5014520;28;20045;-60
2021/10/06 09:48:09;;;;;;;3.90;1.45;;;10.40;99.90;;;;;;5026861;28;20057;-59
2021/10/06 09:50:44;;;;;;;6.20;1.45;;;10.50;99.90;;;;;;5028592;28;20040;-59
2021/10/06 09:53:12;;;;;;;5.85;1.35;;;10.50;99.90;;;;;;5008425;28;20124;-62
2021/10/06 09:55:41;;;;;;;5.13;0.65;;;10.50;99.90;;;;;;4988364;28;20042;-62
2021/10/06 09:58:09;;;;;;;4.95;1.05;;;10.30;99.90;;;;;;4999337;28;20034;-57
2021/10/06 10:00:35;;;;;;;3.67;0.80;;;10.30;99.90;;;;;;5005461;28;20037;-56
2021/10/06 10:03:03;;;;;;;4.43;0.70;;;10.30;99.90;;;;;;5001394;28;20406;-62
2021/10/06 10:05:28;;;;;;;3.28;0.60;;;10.20;99.90;;;;;;5006880;28;20436;-60
2021/10/06 10:07:55;;;;;;;;;;;10.10;99.90;;;;;;5008336;28;20034;-62
2021/10/06 10:10:22;;;;;;;4.10;0.80;;;10.10;99.90;;;;;;4994715;28;19925;-61
2021/10/06 10:12:50;;;;;;;5.93;0.63;;;10.00;99.90;;;;;;5005568;28;20049;-59
2021/10/06 10:15:19;;;;;;;2.45;0.50;;;10.10;99.90;;;;;;4994791;28;20046;-59
2021/10/06 10:17:51;;;;;;;3.13;0.47;;;10.10;99.90;;;;;;5008388;28;20054;-62
2021/10/06 10:20:18;;;;;;;3.55;0.88;;;10.10;99.90;;;;;;5007080;28;20096;-61
2021/10/06 10:22:49;;;;;;;5.05;0.90;;;10.00;99.90;;;;;;5000743;28;20125;-61
2021/10/06 10:25:28;;;;;;;5.15;0.77;;;10.10;99.90;;;;;;4991406;28;20042;-62
2021/10/06 10:28:00;;;;;;;5.63;2.45;;;10.20;99.90;;;;;;4989600;28;20043;-61
2021/10/06 10:30:31;;;;;;;7.15;2.47;;;10.50;99.90;;;;;;4988752;28;20074;-59
2021/10/06 10:32:59;;;;;;;2.88;0.60;;;10.90;99.90;;;;;;5006360;28;20042;-60
2021/10/06 10:35:44;;;;;;;1.85;0.38;;;10.90;99.90;;;;;;5018637;28;20077;-61
2021/10/06 10:38:20;;;;;;;3.40;0.52;;;10.80;99.90;;;;;;5009763;28;20053;-59
2021/10/06 10:40:48;;;;;;;1.52;0.50;;;10.70;99.90;;;;;;5008864;28;20571;-60
2021/10/06 10:43:27;;;;;;;5.07;0.60;;;10.60;99.90;;;;;;5004631;28;20170;-60
2021/10/06 10:46:11;;;;;;;2.28;0.50;;;10.40;99.90;;;;;;4999921;28;20102;-59
2021/10/06 10:48:58;;;;;;;4.35;0.60;;;10.60;99.90;;;;;;5010208;28;20046;-62
2021/10/06 10:51:44;;;;;;;1.25;0.40;;;10.50;99.90;;;;;;5004422;28;20302;-57
2021/10/06 10:54:11;;;;;;;3.50;1.50;;;10.50;99.90;;;;;;5004642;28;20046;-57
2021/10/06 10:56:42;;;;;;;4.70;0.70;;;10.50;99.90;;;;;;5005950;28;20053;-61
2021/10/06 10:59:10;;;;;;;2.97;1.00;;;10.70;99.90;;;;;;5005599;28;20041;-59
2021/10/06 11:02:13;;;;;;;3.05;0.77;;;10.80;99.90;;;;;;5000465;28;20153;-62
2021/10/06 11:04:43;;;;;;;3.47;0.70;;;10.80;99.90;;;;;;5000014;28;20085;-60
2021/10/06 11:07:21;;;;;;;2.97;0.40;;;10.70;99.90;;;;;;5004974;28;20088;-61
2021/10/06 11:09:46;;;;;;;1.60;0.45;;;10.50;99.90;;;;;;5002261;28;20049;-59
2021/10/06 11:12:12;;;;;;;;;;;10.30;99.90;;;;;;5007474;28;20061;-61
2021/10/06 11:14:40;;;;;;;3.55;0.50;;;10.20;99.90;;;;;;5007558;28;19924;-60
2021/10/06 11:17:12;;;;;;;2.03;0.35;;;10.10;99.90;;;;;;5005836;28;20132;-61
2021/10/06 11:19:55;;;;;;;2.67;0.60;;;10.00;99.90;;;;;;5007497;28;20069;-62
2021/10/06 11:22:23;;;;;;;2.47;0.50;;;10.00;99.90;;;;;;5005096;28;20046;-61
2021/10/06 11:24:58;;;;;;;2.60;0.50;;;10.10;99.90;;;;;;4999066;28;20042;-58
2021/10/06 11:27:26;;;;;;;3.83;0.90;;;10.00;99.90;;;;;;5007297;28;20149;-58
2021/10/06 11:29:55;;;;;;;3.22;0.57;;;10.10;99.90;;;;;;5007725;28;20046;-61
2021/10/06 11:32:21;;;;;;;1.58;0.52;;;10.00;99.90;;;;;;5001990;28;20046;-62
2021/10/06 11:34:51;;;;;;;;;;;10.00;99.90;;;;;;4999335;28;20046;-59
2021/10/06 11:37:19;;;;;;;1.45;0.40;;;9.90;99.90;;;;;;4987933;28;19925;-60
2021/10/06 11:39:45;;;;;;;1.45;0.47;;;9.80;99.90;;;;;;4986261;28;20065;-57
2021/10/06 11:42:12;;;;;;;2.05;0.60;;;9.70;99.90;;;;;;4993901;28;20046;-58
2021/10/06 11:44:38;;;;;;;2.75;0.60;;;9.70;99.90;;;;;;5004556;28;20046;-61
2021/10/06 11:47:11;;;;;;;2.70;0.50;;;9.70;99.90;;;;;;4994158;28;20057;-62
2021/10/06 11:49:41;;;;;;;3.83;0.60;;;9.70;99.90;;;;;;5001248;28;20104;-63
2021/10/06 11:52:09;;;;;;;3.40;0.43;;;9.80;99.90;;;;;;4997667;28;20052;-62
2021/10/06 11:54:35;;;;;;;4.18;0.50;;;9.90;99.90;;;;;;5001875;28;20065;-62
2021/10/06 11:57:02;;;;;;;;;;;10.10;99.90;;;;;;5000937;28;20084;-64
2021/10/06 11:59:30;;;;;;;2.10;0.43;;;10.20;99.90;;;;;;4992700;28;19964;-62
2021/10/06 12:02:08;;;;;;;3.10;0.63;;;10.30;99.90;;;;;;5005799;28;20111;-60
2021/10/06 12:04:38;;;;;;;0.90;0.47;;;10.30;99.90;;;;;;5006856;28;20038;-58
2021/10/06 12:07:11;;;;;;;1.35;0.50;;;10.40;99.90;;;;;;5007295;28;20033;-60
2021/10/06 12:09:40;;;;;;;1.38;0.30;;;10.40;99.90;;;;;;5000672;28;20122;-55
2021/10/06 12:12:11;;;;;;;1.73;0.68;;;10.40;99.90;;;;;;4997708;28;20077;-55
2021/10/06 12:14:57;;;;;;;4.53;0.80;;;10.60;99.90;;;;;;5005510;28;20037;-55
2021/10/06 12:17:28;;;;;;;3.13;1.33;;;10.70;99.90;;;;;;5008660;28;20508;-57
2021/10/06 12:19:55;;;;;;;1.55;0.60;;;10.60;99.90;;;;;;5000591;28;20427;-59
2021/10/06 12:22:20;;;;;;;2.00;0.30;;;10.60;99.90;;;;;;5006865;28;20046;-58
2021/10/06 12:24:46;;;;;;;;;;;10.50;99.90;;;;;;5006052;28;20064;-59
2021/10/06 12:27:30;;;;;;;1.65;0.50;;;10.50;99.90;;;;;;5004144;28;19917;-60
2021/10/06 12:30:17;;;;;;;2.47;0.50;;;10.60;99.90;;;;;;5018266;28;20038;-58
2021/10/06 12:32:45;;;;;;;1.35;0.50;;;10.60;99.90;;;;;;5004640;28;20052;-58
2021/10/06 12:35:17;;;;;;;1.92;0.38;;;10.50;99.90;;;;;;5007598;28;20124;-59
2021/10/06 12:37:58;;;;;;;1.92;0.40;;;10.50;99.90;;;;;;5005854;28;20278;-57
2021/10/06 12:40:35;;;;;;;1.67;0.60;;;10.40;99.90;;;;;;5000496;28;20644;-61
2021/10/06 12:43:10;;;;;;;4.13;0.70;;;10.40;99.90;;;;;;5001728;28;20057;-58
2021/10/06 12:45:56;;;;;;;0.93;0.52;;;10.40;99.90;;;;;;5002604;28;20062;-58
2021/10/06 12:48:43;;;;;;;2.50;0.60;;;10.30;99.90;;;;;;4991298;28;20610;-59
2021/10/06 12:51:26;;;;;;;7.55;0.82;;;10.30;99.90;;;;;;4999893;28;20373;-57
2021/10/06 12:54:15;;;;;;;3.13;0.40;;;10.30;99.90;;;;;;5008446;28;20137;-58
2021/10/06 12:56:56;;;;;;;2.03;0.47;;;10.40;99.90;;;;;;5009581;28;20049;-58
2021/10/06 12:59:35;;;;;;;3.92;0.63;;;10.40;99.90;;;;;;5007901;28;20049;-59
2021/10/06 13:02:06;;;;;;;1.38;0.50;;;10.40;99.90;;;;;;4990790;28;20053;-56
2021/10/06 13:04:33;;;;;;;3.70;0.85;;;10.40;99.90;;;;;;4990156;28;20521;-60
2021/10/06 13:06:58;;;;;;;1.10;0.43;;;10.40;99.90;;;;;;4994825;28;20133;-59
2021/10/06 13:09:25;;;;;;;;;;;10.60;99.90;;;;;;4943863;28;463092;-57
2021/10/06 13:11:52;;;;;;;1.65;0.63;;;10.60;99.90;;;;;;4999822;28;20319;-60
2021/10/06 13:14:19;;;;;;;0.98;0.50;;;10.60;99.90;;;;;;5000781;28;20050;-57
2021/10/06 13:16:45;;;;;;;3.72;0.82;;;10.60;99.90;;;;;;5009463;28;20067;-57
2021/10/06 13:19:12;;;;;;;0.90;0.50;;;10.70;99.90;;;;;;5005463;28;20053;-61
2021/10/06 13:21:39;;;;;;;4.32;0.88;;;10.70;99.90;;;;;;4998313;28;20048;-52
2021/10/06 13:24:06;;;;;;;2.38;0.52;;;10.70;99.90;;;;;;5000566;28;20096;-61
2021/10/06 13:26:31;;;;;;;0.98;0.40;;;10.60;99.90;;;;;;5009406;28;20072;-62